• Join FlightAware (Why Join?)
  • Login
  • US Flag 
01:41AM EDT


 

Airport Tracker/Info


-or-


 

Live Flight TrackerFlight Track Log ✈ UAL1067 ✈ 15-Sep-2013 ✈ KLAS - KORD

Flight Track Log - Related Links

Times and Time Zones

All times are in EDT time to prevent confusion due to time zone crossing. See the UAL1067 flight status page for this flight to view local times or setup timezone preferences in your user account.

Time Position Orientation Groundspeed Altitude Reporting Facility
EDT Latitude Longitude Course Direction KTS MPH feet Rate Location/Type
02:18PM 36.0772 -115.1039 82° East 178 205 3,200  Level Los Angeles Center
02:19PM 36.0772 -115.0697 90° East 198 228 3,800 1,140 Climbing Los Angeles Center
02:19PM 36.0761 -115.0592 97° East 216 249 3,900 1,980 Climbing Los Angeles Center
02:20PM 36.0767 -114.9867 89° East 229 264 5,900 1,860 Climbing Los Angeles Center
02:21PM 36.0858 -114.8922 83° East 275 316 7,700 1,500 Climbing Los Angeles Center
02:22PM 36.3379 -114.4265 85° East  Level Estimated
02:22PM 36.1056 -114.7678 79° East 304 350 9,100  Level Los Angeles Center
02:23PM 36.3213 -114.2690 97° East  Level FlightAware Approximate
02:23PM 36.1242 -114.6644 77° East 307 353 11,500  Level Los Angeles Center
02:24PM 36.3731 -114.1216 82° East  Level Estimated
02:24PM 36.1403 -114.5614 79° East 307 353 14,300  Level Los Angeles Center
02:25PM 36.1581 -114.4544 78° East 314 361 16,200 1,980 Climbing Los Angeles Center
02:26PM 36.1742 -114.3378 80° East 337 388 18,500 1,980 Climbing Los Angeles Center
02:27PM 36.1964 -114.2228 77° East 342 394 20,300 1,860 Climbing Los Angeles Center
02:28PM 36.2133 -114.0736 82° East 361 415 22,400 1,800 Climbing Los Angeles Center
02:29PM 36.2275 -113.9458 82° East 371 427 24,100 1,500 Climbing Los Angeles Center
02:30PM 36.2439 -113.8178 81° East 376 433 25,600 1,080 Climbing Los Angeles Center
02:31PM 36.2583 -113.6825 82° East 390 449 26,400 540 Climbing Los Angeles Center
02:32PM 36.2750 -113.5358 82° East 420 483 26,800 300 Climbing Los Angeles Center
02:33PM 36.2931 -113.3775 82° East 454 522 27,100 420 Climbing Los Angeles Center
02:34PM 36.3206 -113.1986 79° East 484 557 27,700 720 Climbing Los Angeles Center
02:35PM 36.3792 -113.0414 65° Northeast 500 575 28,600 1,140 Climbing Los Angeles Center
02:36PM 36.4481 -112.8553 65° Northeast 499 574 30,100 1,140 Climbing Los Angeles Center
02:37PM 36.5061 -112.7011 65° Northeast 496 571 31,000 420 Climbing Los Angeles Center
02:38PM 36.5622 -112.5453 66° East 497 572 31,000 420 Level Los Angeles Center
02:39PM 36.6206 -112.3878 65° Northeast 501 577 31,900 960 Climbing Los Angeles Center
02:40PM 36.6772 -112.2322 66° East 499 574 33,000 480 Climbing Los Angeles Center
02:41PM 36.7442 -112.0472 66° East 493 567 33,000  Level Los Angeles Center
02:42PM 36.7997 -111.8906 66° East 495 570 33,000  Level Los Angeles Center
02:43PM 36.8547 -111.7364 66° East 490 564 33,000  Level Los Angeles Center
02:44PM 36.9100 -111.5817 66° East 491 565 33,000  Level Los Angeles Center
02:45PM 36.9650 -111.4281 66° East 488 562 33,000  Level Los Angeles Center
02:47PM 37.0306 -111.2422 66° East 488 562 33,000  Level Los Angeles Center
02:48PM 37.0964 -111.0558 66° East 492 566 33,000  Level Denver Center
02:49PM 37.1628 -110.8661 66° East 495 570 33,000  Level Denver Center
02:50PM 37.2136 -110.7103 68° East 490 564 33,000  Level Denver Center
02:51PM 37.2689 -110.5511 66° East 495 570 33,000  Level Denver Center
02:52PM 37.3222 -110.3914 67° East 498 573 33,000  Level Denver Center
02:53PM 37.3772 -110.2328 66° East 497 572 33,000  Level Denver Center
02:54PM 37.4361 -110.0603 67° East 496 571 33,000  Level Denver Center
02:55PM 37.4961 -109.8819 67° East 495 570 33,000  Level Denver Center
02:56PM 37.5478 -109.7289 67° East 495 570 33,000  Level Denver Center
02:57PM 37.6067 -109.5503 67° East 493 567 33,000  Level Denver Center
02:58PM 37.6567 -109.3964 68° East 494 568 33,000  Level Denver Center
02:59PM 37.7064 -109.2431 68° East 493 567 33,000  Level Denver Center
03:00PM 37.7644 -109.0653 68° East 490 564 33,000  Level Denver Center
03:01PM 37.8144 -108.9131 67° East 490 564 33,000  Level Denver Center
03:02PM 37.8794 -108.7406 64° Northeast 487 560 33,000  Level Denver Center
03:03PM 37.9356 -108.5919 64° Northeast 486 559 33,000  Level Denver Center
03:04PM 38.0078 -108.4222 62° Northeast 489 563 33,000  Level Denver Center
03:05PM 38.0906 -108.2733 55° Northeast 488 562 33,000  Level Denver Center
03:07PM 38.1450 -108.1253 65° Northeast 486 559 33,000  Level Denver Center
03:08PM 38.2092 -107.9506 65° Northeast 490 564 33,000  Level Denver Center
03:09PM 38.2628 -107.8017 65° Northeast 487 560 33,000  Level Denver Center
03:10PM 38.3161 -107.6536 65° Northeast 484 557 33,000  Level Denver Center
03:11PM 38.3781 -107.4783 66° East 484 557 33,000  Level Denver Center
03:12PM 38.4294 -107.3289 66° East 485 558 33,000  Level Denver Center
03:13PM 38.4844 -107.1775 65° Northeast 483 556 33,000  Level Denver Center
03:14PM 38.5494 -106.9925 66° East 479 551 33,000  Level Denver Center
03:15PM 38.6028 -106.8372 66° East 478 550 33,000  Level Denver Center
03:16PM 38.6564 -106.6828 66° East 479 551 33,000  Level Denver Center
03:17PM 38.7106 -106.5253 66° East 483 556 33,000  Level Denver Center
03:18PM 38.7644 -106.3667 66° East 486 559 33,000  Level Denver Center
03:19PM 38.8186 -106.2078 66° East 487 560 33,000  Level Denver Center
03:20PM 38.8800 -106.0292 66° East 482 555 33,000  Level Denver Center
03:21PM 38.9414 -105.8778 62° Northeast 481 554 33,000  Level Denver Center
03:22PM 39.0386 -105.7556 44° Northeast 490 564 33,000  Level Denver Center
03:23PM 39.1597 -105.6178 41° Northeast 487 560 33,000  Level Denver Center
03:24PM 39.2372 -105.4750 55° Northeast 488 562 33,000  Level Denver Center
03:25PM 39.2889 -105.3136 67° East 483 556 33,000 120 Level Denver Center
03:26PM 39.3367 -105.1500 69° East 487 560 33,300 540 Climbing Denver Center
03:27PM 39.3831 -104.9864 70° East 488 562 34,200 780 Climbing Denver Center
03:28PM 39.4339 -104.8017 70° East 498 573 35,000 360 Climbing Denver Center
03:29PM 39.4842 -104.6225 70° East 496 571 35,000  Level Denver Center
03:30PM 39.5308 -104.4561 70° East 495 570 35,000  Level Denver Center
03:31PM 39.5756 -104.2992 70° East 493 567 35,000  Level Denver Center
03:32PM 39.6306 -104.0978 70° East 497 572 35,000  Level Denver Center
03:33PM 39.6764 -103.9294 70° East 497 572 35,000  Level Denver Center
03:34PM 39.7231 -103.7606 70° East 498 573 35,000  Level Denver Center
03:35PM 39.7686 -103.5944 70° East 491 565 35,000  Level Denver Center
03:37PM 39.8144 -103.4239 71° East 499 574 35,000  Level Denver Center
03:38PM 39.8606 -103.2542 70° East 499 574 35,000  Level Denver Center
03:39PM 39.9147 -103.0500 71° East 499 574 35,000  Level Denver Center
03:40PM 39.9597 -102.8786 71° East 499 574 35,000  Level Denver Center
03:41PM 40.0053 -102.7078 71° East 501 577 35,000  Level Denver Center
03:42PM 40.0483 -102.5381 72° East 499 574 35,000  Level Denver Center
03:43PM 40.0981 -102.3481 71° East 497 572 35,000  Level Denver Center
03:44PM 40.1397 -102.1831 72° East 500 575 35,000  Level Denver Center
03:45PM 40.1881 -101.9908 72° East 498 573 35,000  Level Denver Center
03:46PM 40.2297 -101.8272 72° East 497 572 35,000  Level Denver Center
03:47PM 40.2792 -101.6361 71° East 498 573 35,000  Level Denver Center
03:48PM 40.3183 -101.4736 72° East 492 566 35,000  Level Denver Center
03:49PM 40.3650 -101.2836 72° East 491 565 35,000  Level Denver Center
03:50PM 40.4042 -101.1189 73° East 495 570 35,000  Level Denver Center
03:51PM 40.4528 -100.9278 71° East 497 572 35,000  Level Denver Center
03:52PM 40.5086 -100.7703 65° Northeast 501 577 35,000  Level Denver Center
03:53PM 40.5750 -100.5864 65° Northeast 504 580 35,000  Level Denver Center
03:54PM 40.6331 -100.4278 64° Northeast 508 585 35,000  Level Denver Center
03:55PM 40.7003 -100.2417 64° Northeast 508 585 35,000  Level Denver Center
03:56PM 40.7561 -100.0817 65° Northeast 506 582 35,000  Level Denver Center
03:57PM 40.8233 -99.8950 65° Northeast 506 582 35,000  Level Denver Center
03:58PM 40.8800 -99.7342 65° Northeast 504 580 35,000  Level Denver Center
03:59PM 40.9383 -99.5661 65° Northeast 503 579 35,000  Level Denver Center
04:00PM 40.9819 -99.4325 67° East 499 574 35,000  Level Denver Center
04:01PM 41.0308 -99.2247 73° East 493 567 35,000  Level Denver Center
04:02PM 41.0781 -99.0278 72° East 492 566 35,000  Level Denver Center
04:03PM 41.1189 -98.8600 72° East 498 573 35,000  Level Denver Center
04:04PM 41.1622 -98.6819 72° East 501 577 35,000  Level Denver Center
04:05PM 41.2122 -98.4719 72° East 499 574 35,000  Level Denver Center
04:07PM 41.2617 -98.2619 73° East 497 572 35,000  Level Minneapolis Center
04:08PM 41.3014 -98.0900 73° East 492 566 35,000  Level Minneapolis Center
04:09PM 41.3453 -97.9061 72° East 496 571 35,000  Level Minneapolis Center
04:10PM 41.3850 -97.7325 73° East 493 567 35,000  Level Minneapolis Center
04:11PM 41.4258 -97.5575 73° East 495 570 35,000  Level Minneapolis Center
04:12PM 41.4653 -97.3814 73° East 496 571 35,000  Level Minneapolis Center
04:13PM 41.5050 -97.2039 73° East 498 573 35,000  Level Minneapolis Center
04:14PM 41.5528 -96.9903 73° East 500 575 35,000  Level Minneapolis Center
04:15PM 41.5928 -96.8100 73° East 504 580 35,000  Level Minneapolis Center
04:16PM 41.6317 -96.6306 74° East 502 578 35,000  Level Minneapolis Center
04:17PM 41.6706 -96.4506 74° East 501 577 35,000  Level Minneapolis Center
04:18PM 41.7103 -96.2697 74° East 502 578 35,000  Level Minneapolis Center
04:19PM 41.7492 -96.0889 74° East 501 577 35,000  Level Minneapolis Center
04:20PM 41.7867 -95.9075 74° East 501 577 35,000  Level Minneapolis Center
04:21PM 41.8239 -95.7272 74° East 500 575 35,000  Level Minneapolis Center
04:22PM 41.8700 -95.5089 74° East 503 579 35,000  Level Minneapolis Center
04:23PM 41.9067 -95.3258 75° East 506 582 35,000  Level Minneapolis Center
04:24PM 41.9433 -95.1428 75° East 507 583 35,000  Level Minneapolis Center
04:25PM 41.9806 -94.9586 75° East 510 587 35,000  Level Minneapolis Center
04:26PM 42.0181 -94.7722 75° East 515 593 35,000  Level Minneapolis Center
04:27PM 42.0556 -94.5889 75° East 509 586 35,000  Level Minneapolis Center
04:28PM 42.0911 -94.4061 75° East 507 583 35,000  Level Minneapolis Center
04:29PM 42.1333 -94.1892 75° East 501 577 35,000  Level Minneapolis Center
04:30PM 42.1669 -94.0083 76° East 499 574 35,000  Level Minneapolis Center
04:32PM 42.2003 -93.8322 76° East 501 577 35,000  Level Minneapolis Center
04:33PM 42.2350 -93.6522 75° East 501 577 35,000  Level Minneapolis Center
04:34PM 42.2706 -93.4717 75° East 502 578 35,000  Level Minneapolis Center
04:35PM 42.3108 -93.2511 76° East 508 585 35,000  Level Minneapolis Center
04:36PM 42.3442 -93.0672 76° East 509 586 35,000  Level Minneapolis Center
04:37PM 42.3792 -92.8831 76° East 511 588 35,000  Level Minneapolis Center
04:38PM 42.4125 -92.6967 76° East 514 592 35,000  Level Minneapolis Center
04:39PM 42.4453 -92.5100 77° East 515 593 35,000  Level Minneapolis Center
04:40PM 42.4839 -92.2881 77° East 512 589 35,000 -300 Level Minneapolis Center
04:41PM 42.5158 -92.1025 77° East 512 589 34,500 -720 Descending Minneapolis Center
04:42PM 42.5233 -91.9106 87° East 521 600 33,600 -720 Descending Minneapolis Center
04:43PM 42.5244 -91.7161 89° East 526 605 33,000 -840 Descending Minneapolis Center
04:44PM 42.5253 -91.4844 90° East 527 606 31,900 -1,020 Descending Minneapolis Center
04:45PM 42.5261 -91.2886 90° East 530 610 30,900 -960 Descending Minneapolis Center
04:46PM 42.5264 -91.0903 90° East 534 615 30,000 -960 Descending Minneapolis Center
04:47PM 42.5256 -90.8917 90° East 534 615 29,000 -1,080 Descending Minneapolis Center
04:48PM 42.5250 -90.6547 90° East 531 611 27,800 -1,080 Descending Minneapolis Center
04:49PM 42.5242 -90.4256 90° East 520 598 26,600 -960 Descending Chicago Center
04:50PM 42.5097 -90.2383 96° East 509 586 25,600 -1,020 Descending Chicago Center
04:51PM 42.4931 -90.0167 96° East 501 577 24,500 -1,020 Descending Chicago Center
04:52PM 42.4803 -89.8339 95° East 496 571 23,500 -1,020 Descending Chicago Center
04:53PM 42.4678 -89.6539 95° East 486 559 22,500 -1,020 Descending Chicago Center
04:55PM 42.4561 -89.4761 95° East 481 554 21,500 -1,020 Descending Chicago Center
04:56PM 42.4422 -89.3019 96° East 473 544 20,500 -1,500 Descending Chicago Center
04:57PM 42.4267 -89.1131 96° East 463 533 18,500 -2,040 Descending Chicago Center
04:58PM 42.4133 -88.9492 96° East 448 516 16,300 -2,340 Descending Chicago Center
04:59PM 42.3972 -88.7578 96° East 431 496 13,700 -2,340 Descending Chicago Center
05:00PM 42.3853 -88.6058 96° East 412 474 11,500 -1,800 Descending Chicago Center
05:01PM 42.3678 -88.4631 99° East 390 449 10,000 -780 Descending Chicago Center
05:02PM 42.3214 -88.3528 120° Southeast 347 399 10,000  Level Chicago Center
05:03PM 42.2597 -88.2525 130° Southeast 347 399 10,000  Level Chicago Center
05:04PM 42.1983 -88.1497 129° Southeast 349 402 10,000  Level Chicago Center
05:05PM 42.1108 -88.0497 140° Southeast 347 399 10,000 -600 Level Chicago Center
05:06PM 42.1000 -87.9500 98° East 339 390 8,900 -1,320 Descending Chicago TRACON
05:07PM 42.1000 -87.8333 90° East 335 386 7,700 -1,140 Descending Chicago TRACON
05:08PM 42.0833 -87.7000 100° East 311 358 6,700 -1,020 Descending Chicago TRACON
05:09PM 42.0833 -87.6000 90° East 291 335 5,600 -1,200 Descending Chicago TRACON
05:10PM 42.0833 -87.4833 90° East 295 339 4,300 -780 Descending Chicago TRACON
05:11PM 42.0667 -87.4167 109° East 245 282 4,000 -180 Descending Chicago TRACON
05:12PM 42.0167 -87.4167 180° South 207 238 4,000  Level Chicago TRACON
05:13PM 42.0000 -87.5000 255° West 202 232 4,000  Level Chicago TRACON
05:14PM 42.0000 -87.5667 270° West 207 238 4,000  Level Chicago TRACON
05:15PM 42.0000 -87.6500 270° West 204 235 4,000 -420 Level Chicago TRACON
05:16PM 42.0000 -87.7167 270° West 180 207 3,300 -840 Descending Chicago TRACON
05:17PM 42.0000 -87.7833 270° West 174 200 2,400 -960 Descending Chicago TRACON
05:18PM 42.0000 -87.8500 270° West 152 175 1,400 -960 Descending Chicago TRACON